aviador You're here:

KDHN Decoded Metar

DOTHAN in AL, USA
Report Time2017-06-22 21:53:00
UTC Time2017-06-22 22:19:58
Flight Rules vfr VFR
Wind190° at 15 Gusting to 23 kt
W.Decomp.*RWY 18: 14.6 kt HW 3.4 kt RCW
RWY 14: 9.0 kt HW 12.0 kt RCW
W.Rank190° ranks 29
Current wind is above 190° avg. (6.8)
Visibility9999 m
Phenomena:N/A
Clouds:Scattered 049 Hf
Expected CloudBase > 3,600 ft AGL from Temp-Dew spread
CeilingNone
Temp31°C (ISA +17)
Dew Point22°C (59% RH)
Heat Index34.6°C
AAT30.3°C
QNH1016 hPa
Density Alt2,533 ft
Elevation371 ft
Report Wrong Elevation
Raw Report
METAR KDHN 222153Z 19015G23KT 10SM SCT049 31/22 A3001 RMK AO2 SLP154
T03110217=

Extra information for KDHN:More info

Metar Taf Metar & Taf Last 4 Metars F.Rules Stats Wind Profile Meteogram Temp Stats Airport Information Weather charts Add Link Nearby VenuesMetar ALERT Operation Metar Decoded Social comments

AIRNAV info for KDHN